sensor_id;sensor_type;location;lat;lon;timestamp;P1;durP1;ratioP1;P2;durP2;ratioP2
10529;SDS011;5313;48.834;9.228;2023-03-01T00:01:08;24.50;;;12.83;;
10529;SDS011;5313;48.834;9.228;2023-03-01T00:03:36;18.87;;;11.93;;
10529;SDS011;5313;48.834;9.228;2023-03-01T00:06:02;22.00;;;11.73;;
10529;SDS011;5313;48.834;9.228;2023-03-01T00:08:29;21.57;;;11.70;;
10529;SDS011;5313;48.834;9.228;2023-03-01T00:13:31;25.83;;;12.93;;
10529;SDS011;5313;48.834;9.228;2023-03-01T00:15:56;23.73;;;12.43;;
10529;SDS011;5313;48.834;9.228;2023-03-01T00:18:22;21.43;;;12.13;;
10529;SDS011;5313;48.834;9.228;2023-03-01T00:20:51;21.07;;;12.07;;
10529;SDS011;5313;48.834;9.228;2023-03-01T00:23:18;19.53;;;11.40;;
10529;SDS011;5313;48.834;9.228;2023-03-01T00:25:44;19.27;;;11.23;;
10529;SDS011;5313;48.834;9.228;2023-03-01T00:28:10;19.73;;;11.73;;
10529;SDS011;5313;48.834;9.228;2023-03-01T00:30:35;21.30;;;11.13;;
10529;SDS011;5313;48.834;9.228;2023-03-01T00:33:01;17.90;;;10.53;;
10529;SDS011;5313;48.834;9.228;2023-03-01T00:35:26;20.90;;;10.83;;
10529;SDS011;5313;48.834;9.228;2023-03-01T00:37:52;20.67;;;10.93;;
10529;SDS011;5313;48.834;9.228;2023-03-01T00:40:22;18.97;;;10.80;;
10529;SDS011;5313;48.834;9.228;2023-03-01T00:42:49;18.87;;;11.37;;
10529;SDS011;5313;48.834;9.228;2023-03-01T00:45:14;19.10;;;11.47;;
10529;SDS011;5313;48.834;9.228;2023-03-01T00:47:40;18.67;;;10.97;;
10529;SDS011;5313;48.834;9.228;2023-03-01T00:50:06;19.67;;;11.20;;
10529;SDS011;5313;48.834;9.228;2023-03-01T00:52:32;20.77;;;11.57;;
10529;SDS011;5313;48.834;9.228;2023-03-01T00:54:57;20.53;;;11.30;;
10529;SDS011;5313;48.834;9.228;2023-03-01T00:57:23;19.13;;;11.10;;
10529;SDS011;5313;48.834;9.228;2023-03-01T00:59:49;18.10;;;10.97;;
10529;SDS011;5313;48.834;9.228;2023-03-01T01:02:14;18.47;;;11.60;;
10529;SDS011;5313;48.834;9.228;2023-03-01T01:04:40;20.67;;;12.53;;
10529;SDS011;5313;48.834;9.228;2023-03-01T01:07:06;22.67;;;12.13;;
10529;SDS011;5313;48.834;9.228;2023-03-01T01:09:31;18.87;;;11.90;;
10529;SDS011;5313;48.834;9.228;2023-03-01T01:11:57;23.50;;;11.13;;
10529;SDS011;5313;48.834;9.228;2023-03-01T01:14:22;19.93;;;11.90;;
10529;SDS011;5313;48.834;9.228;2023-03-01T01:16:48;21.23;;;12.20;;
10529;SDS011;5313;48.834;9.228;2023-03-01T01:19:13;19.43;;;11.43;;
10529;SDS011;5313;48.834;9.228;2023-03-01T01:21:39;23.60;;;12.30;;
10529;SDS011;5313;48.834;9.228;2023-03-01T01:24:08;21.93;;;12.27;;
10529;SDS011;5313;48.834;9.228;2023-03-01T01:26:33;19.47;;;11.27;;
10529;SDS011;5313;48.834;9.228;2023-03-01T01:28:59;20.63;;;12.07;;
10529;SDS011;5313;48.834;9.228;2023-03-01T01:31:27;19.97;;;12.07;;
10529;SDS011;5313;48.834;9.228;2023-03-01T01:33:53;21.53;;;13.23;;
10529;SDS011;5313;48.834;9.228;2023-03-01T01:36:19;20.77;;;11.93;;
10529;SDS011;5313;48.834;9.228;2023-03-01T01:38:46;21.83;;;12.50;;
10529;SDS011;5313;48.834;9.228;2023-03-01T01:41:12;21.27;;;11.70;;
10529;SDS011;5313;48.834;9.228;2023-03-01T01:43:40;22.13;;;12.50;;
10529;SDS011;5313;48.834;9.228;2023-03-01T01:46:16;26.23;;;12.23;;
10529;SDS011;5313;48.834;9.228;2023-03-01T01:48:57;21.53;;;12.67;;
10529;SDS011;5313;48.834;9.228;2023-03-01T01:51:25;21.47;;;12.50;;
10529;SDS011;5313;48.834;9.228;2023-03-01T01:54:03;20.23;;;11.90;;
10529;SDS011;5313;48.834;9.228;2023-03-01T01:56:32;21.10;;;11.87;;
10529;SDS011;5313;48.834;9.228;2023-03-01T01:58:58;22.90;;;12.83;;
10529;SDS011;5313;48.834;9.228;2023-03-01T02:01:24;22.77;;;11.83;;
10529;SDS011;5313;48.834;9.228;2023-03-01T02:03:49;22.73;;;12.27;;
10529;SDS011;5313;48.834;9.228;2023-03-01T02:08:48;22.13;;;12.87;;
10529;SDS011;5313;48.834;9.228;2023-03-01T02:11:16;20.13;;;11.23;;
10529;SDS011;5313;48.834;9.228;2023-03-01T02:13:43;20.27;;;11.40;;
10529;SDS011;5313;48.834;9.228;2023-03-01T02:16:10;21.20;;;11.63;;
10529;SDS011;5313;48.834;9.228;2023-03-01T02:18:38;21.27;;;12.30;;
10529;SDS011;5313;48.834;9.228;2023-03-01T02:21:08;23.90;;;12.43;;
10529;SDS011;5313;48.834;9.228;2023-03-01T02:23:56;18.43;;;11.70;;
10529;SDS011;5313;48.834;9.228;2023-03-01T02:26:26;21.53;;;12.70;;
10529;SDS011;5313;48.834;9.228;2023-03-01T02:29:21;20.87;;;11.80;;
10529;SDS011;5313;48.834;9.228;2023-03-01T02:31:48;19.57;;;11.60;;
10529;SDS011;5313;48.834;9.228;2023-03-01T02:34:18;19.43;;;11.77;;
10529;SDS011;5313;48.834;9.228;2023-03-01T02:36:47;20.63;;;12.03;;
10529;SDS011;5313;48.834;9.228;2023-03-01T02:39:19;21.07;;;11.83;;
10529;SDS011;5313;48.834;9.228;2023-03-01T02:41:51;21.47;;;11.77;;
10529;SDS011;5313;48.834;9.228;2023-03-01T02:44:18;20.17;;;11.87;;
10529;SDS011;5313;48.834;9.228;2023-03-01T02:46:46;20.23;;;11.70;;
10529;SDS011;5313;48.834;9.228;2023-03-01T02:51:48;21.77;;;11.73;;
10529;SDS011;5313;48.834;9.228;2023-03-01T02:54:39;21.90;;;12.47;;
10529;SDS011;5313;48.834;9.228;2023-03-01T02:57:20;20.33;;;11.40;;
10529;SDS011;5313;48.834;9.228;2023-03-01T02:59:47;20.50;;;12.47;;
10529;SDS011;5313;48.834;9.228;2023-03-01T03:02:18;21.83;;;13.20;;
10529;SDS011;5313;48.834;9.228;2023-03-01T03:05:00;20.63;;;12.70;;
10529;SDS011;5313;48.834;9.228;2023-03-01T03:07:31;23.17;;;12.80;;
10529;SDS011;5313;48.834;9.228;2023-03-01T03:09:58;22.47;;;12.70;;
10529;SDS011;5313;48.834;9.228;2023-03-01T03:12:24;24.03;;;12.77;;
10529;SDS011;5313;48.834;9.228;2023-03-01T03:14:49;22.13;;;11.97;;
10529;SDS011;5313;48.834;9.228;2023-03-01T03:17:15;23.50;;;13.87;;
10529;SDS011;5313;48.834;9.228;2023-03-01T03:19:40;24.00;;;12.77;;
10529;SDS011;5313;48.834;9.228;2023-03-01T03:22:06;21.53;;;12.40;;
10529;SDS011;5313;48.834;9.228;2023-03-01T03:24:33;24.70;;;13.63;;
10529;SDS011;5313;48.834;9.228;2023-03-01T03:27:03;22.00;;;13.07;;
10529;SDS011;5313;48.834;9.228;2023-03-01T03:29:29;23.40;;;12.53;;
10529;SDS011;5313;48.834;9.228;2023-03-01T03:31:55;23.80;;;13.67;;
10529;SDS011;5313;48.834;9.228;2023-03-01T03:34:20;21.10;;;13.07;;
10529;SDS011;5313;48.834;9.228;2023-03-01T03:36:46;22.50;;;12.23;;
10529;SDS011;5313;48.834;9.228;2023-03-01T03:39:11;20.63;;;12.23;;
10529;SDS011;5313;48.834;9.228;2023-03-01T03:41:37;22.03;;;12.13;;
10529;SDS011;5313;48.834;9.228;2023-03-01T03:44:02;21.67;;;13.30;;
10529;SDS011;5313;48.834;9.228;2023-03-01T03:46:28;21.93;;;12.77;;
10529;SDS011;5313;48.834;9.228;2023-03-01T03:48:53;23.97;;;13.17;;
10529;SDS011;5313;48.834;9.228;2023-03-01T03:51:19;24.67;;;13.37;;
10529;SDS011;5313;48.834;9.228;2023-03-01T03:53:45;21.30;;;12.77;;
10529;SDS011;5313;48.834;9.228;2023-03-01T03:56:11;21.93;;;12.87;;
10529;SDS011;5313;48.834;9.228;2023-03-01T03:58:36;25.07;;;13.47;;
10529;SDS011;5313;48.834;9.228;2023-03-01T04:01:02;22.63;;;12.80;;
10529;SDS011;5313;48.834;9.228;2023-03-01T04:03:28;22.80;;;13.73;;
10529;SDS011;5313;48.834;9.228;2023-03-01T04:05:57;22.77;;;12.73;;
10529;SDS011;5313;48.834;9.228;2023-03-01T04:08:23;22.67;;;12.47;;
10529;SDS011;5313;48.834;9.228;2023-03-01T04:10:50;22.53;;;13.37;;
10529;SDS011;5313;48.834;9.228;2023-03-01T04:13:18;22.23;;;12.87;;
10529;SDS011;5313;48.834;9.228;2023-03-01T04:15:47;21.23;;;12.93;;
10529;SDS011;5313;48.834;9.228;2023-03-01T04:18:14;23.47;;;12.83;;
10529;SDS011;5313;48.834;9.228;2023-03-01T04:20:41;20.43;;;13.00;;
10529;SDS011;5313;48.834;9.228;2023-03-01T04:23:09;23.13;;;13.47;;
10529;SDS011;5313;48.834;9.228;2023-03-01T04:25:49;22.47;;;13.43;;
10529;SDS011;5313;48.834;9.228;2023-03-01T04:28:22;24.63;;;13.17;;
10529;SDS011;5313;48.834;9.228;2023-03-01T04:30:49;20.67;;;12.57;;
10529;SDS011;5313;48.834;9.228;2023-03-01T04:33:15;19.40;;;11.67;;
10529;SDS011;5313;48.834;9.228;2023-03-01T04:35:41;23.27;;;13.13;;
10529;SDS011;5313;48.834;9.228;2023-03-01T04:38:07;21.83;;;12.63;;
10529;SDS011;5313;48.834;9.228;2023-03-01T04:40:33;23.40;;;13.00;;
10529;SDS011;5313;48.834;9.228;2023-03-01T04:43:00;24.67;;;12.83;;
10529;SDS011;5313;48.834;9.228;2023-03-01T04:45:27;21.30;;;12.53;;
10529;SDS011;5313;48.834;9.228;2023-03-01T04:47:52;22.87;;;13.93;;
10529;SDS011;5313;48.834;9.228;2023-03-01T04:50:18;23.57;;;13.07;;
10529;SDS011;5313;48.834;9.228;2023-03-01T04:52:45;22.13;;;12.97;;
10529;SDS011;5313;48.834;9.228;2023-03-01T04:55:12;21.87;;;13.13;;
10529;SDS011;5313;48.834;9.228;2023-03-01T04:57:38;20.40;;;12.50;;
10529;SDS011;5313;48.834;9.228;2023-03-01T05:00:04;22.57;;;12.63;;
10529;SDS011;5313;48.834;9.228;2023-03-01T05:02:44;22.67;;;13.33;;
10529;SDS011;5313;48.834;9.228;2023-03-01T05:05:20;22.43;;;13.47;;
10529;SDS011;5313;48.834;9.228;2023-03-01T05:07:50;23.73;;;13.40;;
10529;SDS011;5313;48.834;9.228;2023-03-01T05:10:23;20.93;;;12.80;;
10529;SDS011;5313;48.834;9.228;2023-03-01T05:12:50;22.00;;;12.73;;
10529;SDS011;5313;48.834;9.228;2023-03-01T05:15:17;21.10;;;12.63;;
10529;SDS011;5313;48.834;9.228;2023-03-01T05:17:42;20.43;;;13.27;;
10529;SDS011;5313;48.834;9.228;2023-03-01T05:20:08;23.07;;;13.00;;
10529;SDS011;5313;48.834;9.228;2023-03-01T05:22:35;24.80;;;13.80;;
10529;SDS011;5313;48.834;9.228;2023-03-01T05:25:01;20.77;;;12.07;;
10529;SDS011;5313;48.834;9.228;2023-03-01T05:27:26;21.47;;;13.00;;
10529;SDS011;5313;48.834;9.228;2023-03-01T05:29:52;20.63;;;12.83;;
10529;SDS011;5313;48.834;9.228;2023-03-01T05:32:17;23.57;;;12.93;;
10529;SDS011;5313;48.834;9.228;2023-03-01T05:34:43;25.03;;;13.53;;
10529;SDS011;5313;48.834;9.228;2023-03-01T05:37:11;24.63;;;13.00;;
10529;SDS011;5313;48.834;9.228;2023-03-01T05:39:37;22.43;;;12.90;;
10529;SDS011;5313;48.834;9.228;2023-03-01T05:42:02;23.50;;;12.87;;
10529;SDS011;5313;48.834;9.228;2023-03-01T05:44:28;24.63;;;13.67;;
10529;SDS011;5313;48.834;9.228;2023-03-01T05:46:54;21.67;;;13.33;;
10529;SDS011;5313;48.834;9.228;2023-03-01T05:49:20;24.07;;;13.93;;
10529;SDS011;5313;48.834;9.228;2023-03-01T05:51:49;19.83;;;12.33;;
10529;SDS011;5313;48.834;9.228;2023-03-01T05:54:16;22.33;;;13.07;;
10529;SDS011;5313;48.834;9.228;2023-03-01T05:56:42;21.80;;;14.07;;
10529;SDS011;5313;48.834;9.228;2023-03-01T05:59:08;22.43;;;13.53;;
10529;SDS011;5313;48.834;9.228;2023-03-01T06:01:34;19.63;;;12.20;;
10529;SDS011;5313;48.834;9.228;2023-03-01T06:04:00;26.07;;;12.60;;
10529;SDS011;5313;48.834;9.228;2023-03-01T06:06:27;22.00;;;12.77;;
10529;SDS011;5313;48.834;9.228;2023-03-01T06:08:53;23.13;;;13.63;;
10529;SDS011;5313;48.834;9.228;2023-03-01T06:11:18;23.87;;;13.67;;
10529;SDS011;5313;48.834;9.228;2023-03-01T06:13:45;21.97;;;12.97;;
10529;SDS011;5313;48.834;9.228;2023-03-01T06:16:11;20.93;;;12.53;;
10529;SDS011;5313;48.834;9.228;2023-03-01T06:18:38;22.97;;;13.13;;
10529;SDS011;5313;48.834;9.228;2023-03-01T06:21:04;23.87;;;13.40;;
10529;SDS011;5313;48.834;9.228;2023-03-01T06:23:31;24.60;;;13.67;;
10529;SDS011;5313;48.834;9.228;2023-03-01T06:25:57;24.10;;;14.17;;
10529;SDS011;5313;48.834;9.228;2023-03-01T06:28:22;21.77;;;12.60;;
10529;SDS011;5313;48.834;9.228;2023-03-01T06:30:49;25.67;;;13.13;;
10529;SDS011;5313;48.834;9.228;2023-03-01T06:33:16;23.27;;;13.40;;
10529;SDS011;5313;48.834;9.228;2023-03-01T06:35:44;25.40;;;13.53;;
10529;SDS011;5313;48.834;9.228;2023-03-01T06:38:09;24.87;;;13.67;;
10529;SDS011;5313;48.834;9.228;2023-03-01T06:40:35;21.17;;;12.83;;
10529;SDS011;5313;48.834;9.228;2023-03-01T06:43:00;26.80;;;13.93;;
10529;SDS011;5313;48.834;9.228;2023-03-01T06:45:26;23.70;;;14.17;;
10529;SDS011;5313;48.834;9.228;2023-03-01T06:47:52;24.00;;;13.97;;
10529;SDS011;5313;48.834;9.228;2023-03-01T06:50:25;24.30;;;13.70;;
10529;SDS011;5313;48.834;9.228;2023-03-01T06:52:55;20.20;;;12.37;;
10529;SDS011;5313;48.834;9.228;2023-03-01T06:55:21;22.23;;;13.33;;
10529;SDS011;5313;48.834;9.228;2023-03-01T06:57:46;27.37;;;14.87;;
10529;SDS011;5313;48.834;9.228;2023-03-01T07:00:12;20.73;;;12.87;;
10529;SDS011;5313;48.834;9.228;2023-03-01T07:02:38;24.70;;;13.93;;
10529;SDS011;5313;48.834;9.228;2023-03-01T07:05:04;23.47;;;13.70;;
10529;SDS011;5313;48.834;9.228;2023-03-01T07:07:30;23.47;;;13.67;;
10529;SDS011;5313;48.834;9.228;2023-03-01T07:09:55;26.00;;;14.53;;
10529;SDS011;5313;48.834;9.228;2023-03-01T07:12:21;24.80;;;14.53;;
10529;SDS011;5313;48.834;9.228;2023-03-01T07:14:46;27.67;;;13.43;;
10529;SDS011;5313;48.834;9.228;2023-03-01T07:17:12;23.03;;;13.73;;
10529;SDS011;5313;48.834;9.228;2023-03-01T07:19:37;24.43;;;13.67;;
10529;SDS011;5313;48.834;9.228;2023-03-01T07:22:03;26.40;;;14.10;;
10529;SDS011;5313;48.834;9.228;2023-03-01T07:24:29;24.50;;;14.33;;
10529;SDS011;5313;48.834;9.228;2023-03-01T07:26:54;24.87;;;13.70;;
10529;SDS011;5313;48.834;9.228;2023-03-01T07:29:20;24.27;;;13.07;;
10529;SDS011;5313;48.834;9.228;2023-03-01T07:31:45;21.60;;;13.47;;
10529;SDS011;5313;48.834;9.228;2023-03-01T07:34:11;23.27;;;13.70;;
10529;SDS011;5313;48.834;9.228;2023-03-01T07:36:37;23.90;;;13.47;;
10529;SDS011;5313;48.834;9.228;2023-03-01T07:39:04;28.00;;;15.33;;
10529;SDS011;5313;48.834;9.228;2023-03-01T07:41:29;22.00;;;13.23;;
10529;SDS011;5313;48.834;9.228;2023-03-01T07:43:55;23.50;;;14.17;;
10529;SDS011;5313;48.834;9.228;2023-03-01T07:46:21;26.57;;;14.07;;
10529;SDS011;5313;48.834;9.228;2023-03-01T07:48:46;24.10;;;13.70;;
10529;SDS011;5313;48.834;9.228;2023-03-01T07:51:12;24.50;;;13.40;;
10529;SDS011;5313;48.834;9.228;2023-03-01T07:53:38;24.10;;;13.77;;
10529;SDS011;5313;48.834;9.228;2023-03-01T07:56:05;24.07;;;14.10;;
10529;SDS011;5313;48.834;9.228;2023-03-01T07:58:36;23.70;;;13.47;;
10529;SDS011;5313;48.834;9.228;2023-03-01T08:01:05;24.77;;;14.40;;
10529;SDS011;5313;48.834;9.228;2023-03-01T08:03:33;25.43;;;13.47;;
10529;SDS011;5313;48.834;9.228;2023-03-01T08:06:00;25.80;;;14.27;;
10529;SDS011;5313;48.834;9.228;2023-03-01T08:08:26;28.33;;;14.47;;
10529;SDS011;5313;48.834;9.228;2023-03-01T08:10:52;23.80;;;13.87;;
10529;SDS011;5313;48.834;9.228;2023-03-01T08:13:20;22.27;;;13.20;;
10529;SDS011;5313;48.834;9.228;2023-03-01T08:15:47;23.80;;;13.50;;
10529;SDS011;5313;48.834;9.228;2023-03-01T08:18:14;22.33;;;13.40;;
10529;SDS011;5313;48.834;9.228;2023-03-01T08:20:40;21.77;;;13.33;;
10529;SDS011;5313;48.834;9.228;2023-03-01T08:23:05;26.80;;;14.57;;
10529;SDS011;5313;48.834;9.228;2023-03-01T08:25:31;21.30;;;11.33;;
10529;SDS011;5313;48.834;9.228;2023-03-01T08:27:56;25.37;;;13.53;;
10529;SDS011;5313;48.834;9.228;2023-03-01T08:30:21;24.03;;;14.00;;
10529;SDS011;5313;48.834;9.228;2023-03-01T08:32:48;23.97;;;13.77;;
10529;SDS011;5313;48.834;9.228;2023-03-01T08:35:14;25.10;;;14.23;;
10529;SDS011;5313;48.834;9.228;2023-03-01T08:37:40;25.00;;;13.27;;
10529;SDS011;5313;48.834;9.228;2023-03-01T08:40:06;24.87;;;14.30;;
10529;SDS011;5313;48.834;9.228;2023-03-01T08:42:32;24.60;;;14.67;;
10529;SDS011;5313;48.834;9.228;2023-03-01T08:44:58;24.07;;;13.83;;
10529;SDS011;5313;48.834;9.228;2023-03-01T08:47:23;24.13;;;13.83;;
10529;SDS011;5313;48.834;9.228;2023-03-01T08:49:49;28.03;;;14.50;;
10529;SDS011;5313;48.834;9.228;2023-03-01T08:52:15;22.63;;;13.20;;
10529;SDS011;5313;48.834;9.228;2023-03-01T08:54:41;23.23;;;13.13;;
10529;SDS011;5313;48.834;9.228;2023-03-01T08:57:06;24.90;;;14.57;;
10529;SDS011;5313;48.834;9.228;2023-03-01T08:59:33;25.13;;;14.30;;
10529;SDS011;5313;48.834;9.228;2023-03-01T09:02:02;23.87;;;14.03;;
10529;SDS011;5313;48.834;9.228;2023-03-01T09:04:29;23.47;;;14.03;;
10529;SDS011;5313;48.834;9.228;2023-03-01T09:06:54;21.70;;;13.83;;
10529;SDS011;5313;48.834;9.228;2023-03-01T09:09:20;22.27;;;14.23;;
10529;SDS011;5313;48.834;9.228;2023-03-01T09:11:45;24.03;;;13.70;;
10529;SDS011;5313;48.834;9.228;2023-03-01T09:14:12;22.00;;;13.37;;
10529;SDS011;5313;48.834;9.228;2023-03-01T09:16:38;23.67;;;13.97;;
10529;SDS011;5313;48.834;9.228;2023-03-01T09:19:04;25.53;;;13.50;;
10529;SDS011;5313;48.834;9.228;2023-03-01T09:21:30;23.93;;;13.90;;
10529;SDS011;5313;48.834;9.228;2023-03-01T09:23:56;23.93;;;13.57;;
10529;SDS011;5313;48.834;9.228;2023-03-01T09:26:22;21.93;;;12.70;;
10529;SDS011;5313;48.834;9.228;2023-03-01T09:28:50;22.93;;;14.53;;
10529;SDS011;5313;48.834;9.228;2023-03-01T09:31:18;26.63;;;14.03;;
10529;SDS011;5313;48.834;9.228;2023-03-01T09:33:48;27.23;;;13.43;;
10529;SDS011;5313;48.834;9.228;2023-03-01T09:36:16;25.27;;;13.20;;
10529;SDS011;5313;48.834;9.228;2023-03-01T09:38:43;22.80;;;13.47;;
10529;SDS011;5313;48.834;9.228;2023-03-01T09:41:22;21.83;;;12.93;;
10529;SDS011;5313;48.834;9.228;2023-03-01T09:43:59;21.17;;;12.83;;
10529;SDS011;5313;48.834;9.228;2023-03-01T09:46:29;25.13;;;13.43;;
10529;SDS011;5313;48.834;9.228;2023-03-01T09:49:03;23.50;;;13.70;;
10529;SDS011;5313;48.834;9.228;2023-03-01T09:51:34;22.37;;;14.30;;
10529;SDS011;5313;48.834;9.228;2023-03-01T09:54:02;22.47;;;13.73;;
10529;SDS011;5313;48.834;9.228;2023-03-01T09:56:47;24.10;;;14.33;;
10529;SDS011;5313;48.834;9.228;2023-03-01T09:59:50;24.10;;;14.67;;
10529;SDS011;5313;48.834;9.228;2023-03-01T10:02:46;23.53;;;13.73;;
10529;SDS011;5313;48.834;9.228;2023-03-01T10:10:34;22.90;;;13.13;;
10529;SDS011;5313;48.834;9.228;2023-03-01T10:13:04;24.60;;;14.23;;
10529;SDS011;5313;48.834;9.228;2023-03-01T10:15:42;24.23;;;14.33;;
10529;SDS011;5313;48.834;9.228;2023-03-01T10:18:13;21.43;;;13.70;;
10529;SDS011;5313;48.834;9.228;2023-03-01T10:23:25;26.97;;;14.13;;
10529;SDS011;5313;48.834;9.228;2023-03-01T10:26:08;21.63;;;14.13;;
10529;SDS011;5313;48.834;9.228;2023-03-01T10:28:41;21.80;;;13.73;;
10529;SDS011;5313;48.834;9.228;2023-03-01T10:31:18;22.13;;;13.17;;
10529;SDS011;5313;48.834;9.228;2023-03-01T10:33:48;18.17;;;12.57;;
10529;SDS011;5313;48.834;9.228;2023-03-01T10:36:18;20.23;;;12.80;;
10529;SDS011;5313;48.834;9.228;2023-03-01T10:38:54;19.00;;;12.10;;
10529;SDS011;5313;48.834;9.228;2023-03-01T10:41:22;20.50;;;12.37;;
10529;SDS011;5313;48.834;9.228;2023-03-01T10:43:50;20.30;;;12.77;;
10529;SDS011;5313;48.834;9.228;2023-03-01T10:46:34;19.93;;;12.57;;
10529;SDS011;5313;48.834;9.228;2023-03-01T10:51:36;20.53;;;13.17;;
10529;SDS011;5313;48.834;9.228;2023-03-01T10:56:56;20.40;;;13.30;;
10529;SDS011;5313;48.834;9.228;2023-03-01T10:59:27;19.37;;;13.27;;
10529;SDS011;5313;48.834;9.228;2023-03-01T11:04:39;19.53;;;12.67;;
10529;SDS011;5313;48.834;9.228;2023-03-01T11:07:21;17.60;;;12.20;;
10529;SDS011;5313;48.834;9.228;2023-03-01T11:09:46;19.83;;;12.87;;
10529;SDS011;5313;48.834;9.228;2023-03-01T11:12:15;18.90;;;12.33;;
10529;SDS011;5313;48.834;9.228;2023-03-01T11:14:51;18.27;;;11.73;;
10529;SDS011;5313;48.834;9.228;2023-03-01T11:17:31;20.43;;;12.23;;
10529;SDS011;5313;48.834;9.228;2023-03-01T11:20:13;19.40;;;12.53;;
10529;SDS011;5313;48.834;9.228;2023-03-01T11:22:50;17.60;;;12.63;;
10529;SDS011;5313;48.834;9.228;2023-03-01T11:25:25;17.13;;;11.40;;
10529;SDS011;5313;48.834;9.228;2023-03-01T11:27:54;17.00;;;11.50;;
10529;SDS011;5313;48.834;9.228;2023-03-01T11:30:27;18.80;;;11.77;;
10529;SDS011;5313;48.834;9.228;2023-03-01T11:33:01;21.03;;;12.40;;
10529;SDS011;5313;48.834;9.228;2023-03-01T11:35:45;17.90;;;11.83;;
10529;SDS011;5313;48.834;9.228;2023-03-01T11:38:20;17.60;;;12.07;;
10529;SDS011;5313;48.834;9.228;2023-03-01T11:48:38;17.63;;;12.00;;
10529;SDS011;5313;48.834;9.228;2023-03-01T11:54:26;17.20;;;11.60;;
10529;SDS011;5313;48.834;9.228;2023-03-01T11:57:04;19.13;;;11.60;;
10529;SDS011;5313;48.834;9.228;2023-03-01T12:05:25;16.23;;;11.13;;
10529;SDS011;5313;48.834;9.228;2023-03-01T12:08:23;15.90;;;10.80;;
10529;SDS011;5313;48.834;9.228;2023-03-01T12:26:31;15.93;;;10.63;;
10529;SDS011;5313;48.834;9.228;2023-03-01T12:37:22;18.87;;;11.60;;
10529;SDS011;5313;48.834;9.228;2023-03-01T12:40:09;16.90;;;11.60;;
10529;SDS011;5313;48.834;9.228;2023-03-01T12:46:18;15.43;;;11.00;;
10529;SDS011;5313;48.834;9.228;2023-03-01T12:49:13;15.73;;;11.30;;
10529;SDS011;5313;48.834;9.228;2023-03-01T12:51:56;15.23;;;11.00;;
10529;SDS011;5313;48.834;9.228;2023-03-01T12:54:34;14.97;;;10.47;;
10529;SDS011;5313;48.834;9.228;2023-03-01T12:57:03;17.03;;;11.00;;
10529;SDS011;5313;48.834;9.228;2023-03-01T12:59:39;17.17;;;11.10;;
10529;SDS011;5313;48.834;9.228;2023-03-01T13:02:23;15.20;;;10.07;;
10529;SDS011;5313;48.834;9.228;2023-03-01T13:05:00;16.57;;;11.10;;
10529;SDS011;5313;48.834;9.228;2023-03-01T13:07:51;15.17;;;10.23;;
10529;SDS011;5313;48.834;9.228;2023-03-01T13:10:30;18.80;;;11.60;;
10529;SDS011;5313;48.834;9.228;2023-03-01T13:13:03;16.17;;;11.03;;
10529;SDS011;5313;48.834;9.228;2023-03-01T13:15:43;16.47;;;11.87;;
10529;SDS011;5313;48.834;9.228;2023-03-01T13:28:37;18.57;;;11.43;;
10529;SDS011;5313;48.834;9.228;2023-03-01T13:33:41;19.13;;;11.90;;
10529;SDS011;5313;48.834;9.228;2023-03-01T13:44:21;18.30;;;13.40;;
10529;SDS011;5313;48.834;9.228;2023-03-01T13:46:56;21.53;;;12.70;;
10529;SDS011;5313;48.834;9.228;2023-03-01T13:49:51;17.93;;;12.53;;
10529;SDS011;5313;48.834;9.228;2023-03-01T13:52:39;18.20;;;12.77;;
10529;SDS011;5313;48.834;9.228;2023-03-01T13:57:38;17.40;;;11.40;;
10529;SDS011;5313;48.834;9.228;2023-03-01T14:00:05;20.30;;;13.13;;
10529;SDS011;5313;48.834;9.228;2023-03-01T14:02:31;20.37;;;12.23;;
10529;SDS011;5313;48.834;9.228;2023-03-01T14:04:57;18.67;;;12.87;;
10529;SDS011;5313;48.834;9.228;2023-03-01T14:07:24;18.50;;;12.07;;
10529;SDS011;5313;48.834;9.228;2023-03-01T14:09:55;18.10;;;13.03;;
10529;SDS011;5313;48.834;9.228;2023-03-01T14:15:22;19.57;;;13.33;;
10529;SDS011;5313;48.834;9.228;2023-03-01T14:20:50;19.70;;;12.63;;
10529;SDS011;5313;48.834;9.228;2023-03-01T14:23:21;19.90;;;13.13;;
10529;SDS011;5313;48.834;9.228;2023-03-01T14:28:16;18.43;;;13.13;;
10529;SDS011;5313;48.834;9.228;2023-03-01T14:30:46;18.20;;;12.97;;
10529;SDS011;5313;48.834;9.228;2023-03-01T14:33:30;22.07;;;13.27;;
10529;SDS011;5313;48.834;9.228;2023-03-01T14:36:08;20.27;;;13.57;;
10529;SDS011;5313;48.834;9.228;2023-03-01T14:38:45;18.30;;;12.33;;
10529;SDS011;5313;48.834;9.228;2023-03-01T14:41:16;20.47;;;12.37;;
10529;SDS011;5313;48.834;9.228;2023-03-01T14:43:51;20.87;;;13.50;;
10529;SDS011;5313;48.834;9.228;2023-03-01T14:46:22;20.37;;;13.57;;
10529;SDS011;5313;48.834;9.228;2023-03-01T14:48:52;20.53;;;12.70;;
10529;SDS011;5313;48.834;9.228;2023-03-01T14:51:23;20.70;;;13.13;;
10529;SDS011;5313;48.834;9.228;2023-03-01T14:53:48;18.70;;;11.53;;
10529;SDS011;5313;48.834;9.228;2023-03-01T14:56:15;21.47;;;13.23;;
10529;SDS011;5313;48.834;9.228;2023-03-01T14:58:44;20.43;;;13.07;;
10529;SDS011;5313;48.834;9.228;2023-03-01T15:01:13;23.50;;;14.27;;
10529;SDS011;5313;48.834;9.228;2023-03-01T15:03:42;19.03;;;12.97;;
10529;SDS011;5313;48.834;9.228;2023-03-01T15:06:10;23.27;;;13.67;;
10529;SDS011;5313;48.834;9.228;2023-03-01T15:08:39;19.77;;;12.53;;
10529;SDS011;5313;48.834;9.228;2023-03-01T15:11:20;22.67;;;13.40;;
10529;SDS011;5313;48.834;9.228;2023-03-01T15:13:50;19.67;;;12.17;;
10529;SDS011;5313;48.834;9.228;2023-03-01T15:16:17;21.10;;;13.17;;
10529;SDS011;5313;48.834;9.228;2023-03-01T15:18:47;21.13;;;13.43;;
10529;SDS011;5313;48.834;9.228;2023-03-01T15:21:16;18.47;;;13.03;;
10529;SDS011;5313;48.834;9.228;2023-03-01T15:23:53;21.90;;;13.30;;
10529;SDS011;5313;48.834;9.228;2023-03-01T15:26:31;18.80;;;12.73;;
10529;SDS011;5313;48.834;9.228;2023-03-01T15:29:01;20.87;;;12.70;;
10529;SDS011;5313;48.834;9.228;2023-03-01T15:31:28;18.63;;;12.20;;
10529;SDS011;5313;48.834;9.228;2023-03-01T15:34:10;20.87;;;12.93;;
10529;SDS011;5313;48.834;9.228;2023-03-01T15:36:50;20.83;;;13.83;;
10529;SDS011;5313;48.834;9.228;2023-03-01T15:39:30;18.37;;;12.63;;
10529;SDS011;5313;48.834;9.228;2023-03-01T15:44:32;20.90;;;13.60;;
10529;SDS011;5313;48.834;9.228;2023-03-01T15:47:08;20.37;;;12.93;;
10529;SDS011;5313;48.834;9.228;2023-03-01T15:49:56;20.40;;;12.60;;
10529;SDS011;5313;48.834;9.228;2023-03-01T15:54:56;19.63;;;12.43;;
10529;SDS011;5313;48.834;9.228;2023-03-01T15:57:23;20.67;;;12.93;;
10529;SDS011;5313;48.834;9.228;2023-03-01T15:59:49;18.10;;;13.03;;
10529;SDS011;5313;48.834;9.228;2023-03-01T16:02:15;20.87;;;13.17;;
10529;SDS011;5313;48.834;9.228;2023-03-01T16:04:40;19.83;;;13.50;;
10529;SDS011;5313;48.834;9.228;2023-03-01T16:07:06;20.50;;;12.40;;
10529;SDS011;5313;48.834;9.228;2023-03-01T16:09:34;17.70;;;12.30;;
10529;SDS011;5313;48.834;9.228;2023-03-01T16:12:00;20.37;;;13.03;;
10529;SDS011;5313;48.834;9.228;2023-03-01T16:14:26;18.30;;;12.77;;
10529;SDS011;5313;48.834;9.228;2023-03-01T16:16:52;19.83;;;12.03;;
10529;SDS011;5313;48.834;9.228;2023-03-01T16:19:17;17.77;;;12.03;;
10529;SDS011;5313;48.834;9.228;2023-03-01T16:21:43;18.57;;;11.83;;
10529;SDS011;5313;48.834;9.228;2023-03-01T16:24:11;21.17;;;12.73;;
10529;SDS011;5313;48.834;9.228;2023-03-01T16:26:37;19.53;;;12.37;;
10529;SDS011;5313;48.834;9.228;2023-03-01T16:29:03;19.23;;;12.70;;
10529;SDS011;5313;48.834;9.228;2023-03-01T16:31:29;19.47;;;12.10;;